Time;durP1;ratioP1;P1;durP2;ratioP2;P2;SDS_P1;SDS_P2;PMS_P1;PMS_P2;Temp;Humidity;BMP_temperature;BMP_pressure;BME280_temperature;BME280_humidity;BME280_pressure;Samples;Min_cycle;Max_cycle;Signal;HPM_P1;HPM_P2
2022/07/07 00:01:29;;;;;;;;;1.67;1.67;;;;;23.38;45.03;102052.19;5055702;28;45853;-70
2022/07/07 00:03:57;;;;;;;;;4.00;3.00;;;;;23.38;45.43;102064.69;5054190;28;46500;-69
2022/07/07 00:06:22;;;;;;;;;3.00;1.67;;;;;23.35;45.30;102064.75;5044079;28;45595;-70
2022/07/07 00:08:48;;;;;;;;;1.67;1.67;;;;;23.14;45.55;102034.22;5055140;28;45350;-69
2022/07/07 00:11:15;;;;;;;;;1.00;1.00;;;;;23.26;45.78;102055.25;5055975;28;45685;-68
2022/07/07 00:13:40;;;;;;;;;7.00;4.00;;;;;23.19;45.95;102065.25;5055630;28;45590;-69
2022/07/07 00:16:06;;;;;;;;;4.00;4.00;;;;;23.15;46.15;102052.00;5054771;28;45550;-67
2022/07/07 00:18:32;;;;;;;;;5.33;3.67;;;;;23.03;46.61;102055.91;5073969;28;45389;-70
2022/07/07 00:20:57;;;;;;;;;3.00;3.00;;;;;23.02;46.59;102059.53;5055035;28;45387;-70
2022/07/07 00:23:23;;;;;;;;;3.00;3.00;;;;;22.95;46.45;102039.22;5054717;28;46289;-70
2022/07/07 00:25:57;;;;;;;;;1.00;1.00;;;;;22.96;46.28;102032.94;5054301;28;45437;-69
2022/07/07 00:28:23;;;;;;;;;3.00;1.67;;;;;23.04;46.21;102045.19;5066908;27;45471;-69
2022/07/07 00:30:55;;;;;;;;;2.00;2.00;;;;;23.02;46.32;102035.47;5051909;28;45333;-69
2022/07/07 00:33:21;;;;;;;;;1.00;1.00;;;;;23.07;46.26;102044.22;5087129;27;46578;-70
2022/07/07 00:35:47;;;;;;;;;1.00;1.00;;;;;23.07;46.35;102041.56;5057884;28;45370;-70
2022/07/07 00:38:13;;;;;;;;;2.00;2.00;;;;;23.07;46.36;102044.22;5055221;28;45552;-68
2022/07/07 00:40:39;;;;;;;;;2.00;2.00;;;;;23.05;46.47;102038.91;5055289;28;45345;-70
2022/07/07 00:43:04;;;;;;;;;2.33;2.33;;;;;22.91;46.10;102017.03;5054692;28;46449;-70
2022/07/07 00:45:37;;;;;;;;;2.00;2.00;;;;;22.96;46.21;102019.56;5054526;28;45577;-70
2022/07/07 00:48:04;;;;;;;;;2.00;2.00;;;;;23.04;46.28;102026.50;5054580;27;45469;-69
2022/07/07 00:50:30;;;;;;;;;2.00;2.00;;;;;22.98;46.78;102028.44;5055081;28;45343;-70
2022/07/07 00:52:55;;;;;;;;;2.33;2.00;;;;;22.81;46.90;102018.22;5054497;28;45898;-70
2022/07/07 00:55:21;;;;;;;;;1.67;1.67;;;;;22.87;46.88;102023.38;5054491;28;45508;-70
2022/07/07 00:57:47;;;;;;;;;1.67;1.67;;;;;22.71;46.91;101993.59;5053192;28;45527;-70
2022/07/07 01:00:15;;;;;;;;;3.00;3.00;;;;;22.73;47.15;102022.91;5054341;28;45919;-69
2022/07/07 01:02:44;;;;;;;;;2.67;2.67;;;;;22.74;46.88;102022.00;5054671;28;47098;-68
2022/07/07 01:05:10;;;;;;;;;1.67;1.67;;;;;22.72;47.00;102008.69;5040647;28;45386;-69
2022/07/07 01:07:37;;;;;;;;;1.00;1.00;;;;;22.74;47.49;101998.84;5052885;28;45870;-69
2022/07/07 01:10:05;;;;;;;;;2.33;2.33;;;;;22.67;47.83;102007.94;5054187;28;45505;-70
2022/07/07 01:12:36;;;;;;;;;2.00;2.00;;;;;22.65;47.61;102010.66;5053816;28;45587;-70
2022/07/07 01:15:03;;;;;;;;;3.67;2.00;;;;;22.68;47.58;101995.47;5054490;28;45353;-70
2022/07/07 01:17:29;;;;;;;;;1.67;1.33;;;;;22.54;47.40;101969.16;5054338;28;45925;-69
2022/07/07 01:19:54;;;;;;;;;1.00;1.00;;;;;22.57;47.11;101977.09;5054410;28;45484;-69
2022/07/07 01:22:23;;;;;;;;;3.00;3.00;;;;;22.67;47.31;102002.59;5053611;28;46168;-66
2022/07/07 01:24:49;;;;;;;;;2.00;2.00;;;;;22.36;47.65;101960.75;5069180;28;45409;-70
2022/07/07 01:27:17;;;;;;;;;2.33;1.67;;;;;22.61;47.42;102002.75;5053801;28;45433;-68
2022/07/07 01:29:46;;;;;;;;;1.00;1.00;;;;;22.55;47.44;101995.81;5074015;28;45480;-68
2022/07/07 01:32:12;;;;;;;;;3.00;1.67;;;;;22.61;47.48;102005.44;5057440;28;46650;-68
2022/07/07 01:34:39;;;;;;;;;3.00;3.00;;;;;22.55;47.27;101990.47;5053841;28;45768;-69
2022/07/07 01:37:06;;;;;;;;;2.67;2.67;;;;;22.55;47.38;101992.28;5054268;28;45284;-71
2022/07/07 01:39:32;;;;;;;;;2.00;2.00;;;;;22.61;47.30;101997.41;5054865;28;45334;-70
2022/07/07 01:41:58;;;;;;;;;3.67;3.00;;;;;22.60;47.32;101993.00;5057407;28;46297;-69
2022/07/07 01:44:24;;;;;;;;;2.33;2.33;;;;;22.57;47.30;101985.09;5058298;28;45326;-71
2022/07/07 01:46:50;;;;;;;;;2.00;2.00;;;;;22.58;47.43;101989.50;5058109;28;45323;-69
2022/07/07 01:49:16;;;;;;;;;2.00;2.00;;;;;22.55;47.45;101985.13;5056286;28;45412;-69
2022/07/07 01:51:42;;;;;;;;;2.00;2.00;;;;;22.54;47.54;101986.06;5054582;28;46587;-70
2022/07/07 01:54:07;;;;;;;;;1.67;1.33;;;;;22.52;47.50;101985.22;5054728;28;45505;-69
2022/07/07 01:56:34;;;;;;;;;5.00;2.00;;;;;22.51;47.67;101990.59;5055382;28;45421;-69
2022/07/07 01:58:59;;;;;;;;;3.00;3.00;;;;;22.41;47.68;101973.97;5055415;28;45537;-69
2022/07/07 02:01:25;;;;;;;;;4.00;3.00;;;;;22.47;47.56;101979.16;5054604;28;45385;-70
2022/07/07 02:03:50;;;;;;;;;2.67;2.67;;;;;22.46;47.71;101977.38;5054379;28;45499;-68
2022/07/07 02:06:16;;;;;;;;;1.67;1.67;;;;;22.46;47.59;101973.84;5044409;28;45343;-67
2022/07/07 02:08:41;;;;;;;;;2.00;2.00;;;;;22.44;47.71;101973.88;5055789;28;45427;-68
2022/07/07 02:11:13;;;;;;;;;2.33;2.33;;;;;22.44;47.81;101974.75;5055472;28;46203;-71
2022/07/07 02:13:49;;;;;;;;;2.00;2.00;;;;;22.40;47.92;101967.75;5059036;28;45423;-71
2022/07/07 02:16:16;;;;;;;;;2.00;1.00;;;;;22.42;47.62;101973.03;5057583;28;45553;-67
2022/07/07 02:18:43;;;;;;;;;3.00;2.00;;;;;22.42;47.81;101965.94;5053821;28;45377;-69
2022/07/07 02:21:11;;;;;;;;;2.00;2.00;;;;;22.40;47.61;101957.09;5068813;28;47178;-70
2022/07/07 02:23:37;;;;;;;;;2.00;2.00;;;;;22.39;48.06;101952.66;5053532;28;45568;-70
2022/07/07 02:26:03;;;;;;;;;2.00;2.00;;;;;22.40;47.71;101961.53;5053371;28;45791;-69
2022/07/07 02:28:30;;;;;;;;;2.00;2.00;;;;;22.37;47.56;101959.81;5037920;28;45550;-68
2022/07/07 02:30:57;;;;;;;;;1.33;1.33;;;;;22.30;47.83;101950.22;5052055;28;45454;-68
2022/07/07 02:33:24;;;;;;;;;2.67;2.67;;;;;22.36;47.84;101960.75;5044049;28;45252;-68
2022/07/07 02:35:51;;;;;;;;;3.00;3.00;;;;;22.36;47.79;101968.75;5052562;28;45291;-69
2022/07/07 02:38:17;;;;;;;;;2.33;2.33;;;;;22.35;47.92;101968.78;5045321;28;45446;-69
2022/07/07 02:40:44;;;;;;;;;2.00;2.00;;;;;22.32;48.03;101964.41;5053806;28;45429;-66
2022/07/07 02:43:12;;;;;;;;;2.00;2.00;;;;;22.18;47.82;101946.06;5053951;28;45498;-65
2022/07/07 02:45:42;;;;;;;;;2.00;2.00;;;;;22.20;47.94;101944.28;5039627;28;45312;-68
2022/07/07 02:48:13;;;;;;;;;2.00;2.00;;;;;22.27;47.89;101957.47;5053127;28;45500;-68
2022/07/07 02:50:40;;;;;;;;;2.00;2.00;;;;;22.26;48.13;101958.34;5052913;28;45725;-66
2022/07/07 02:53:07;;;;;;;;;3.00;2.00;;;;;21.94;48.32;101898.72;5052615;28;45441;-68
2022/07/07 02:55:32;;;;;;;;;3.67;2.00;;;;;22.19;48.59;101954.97;5053402;28;45519;-69
2022/07/07 02:58:02;;;;;;;;;2.00;2.00;;;;;22.15;48.34;101962.16;5053097;28;45560;-71
2022/07/07 03:00:29;;;;;;;;;2.67;2.67;;;;;22.12;48.42;101959.59;5053531;28;45484;-69
2022/07/07 03:02:55;;;;;;;;;2.00;2.00;;;;;22.13;48.36;101955.13;5052965;28;45480;-69
2022/07/07 03:05:22;;;;;;;;;2.00;2.00;;;;;22.13;48.46;101948.00;5053462;28;45730;-69
2022/07/07 03:07:49;;;;;;;;;2.33;2.00;;;;;22.12;48.56;101954.25;5069067;27;45370;-70
2022/07/07 03:10:15;;;;;;;;;2.00;2.00;;;;;22.07;48.50;101947.28;5053138;28;45783;-69
2022/07/07 03:12:41;;;;;;;;;1.33;1.33;;;;;22.04;48.74;101950.91;5053437;28;45275;-68
2022/07/07 03:15:08;;;;;;;;;4.00;2.67;;;;;22.07;48.70;101953.50;5052840;28;45826;-70
2022/07/07 03:17:33;;;;;;;;;2.00;1.00;;;;;21.96;48.76;101935.09;5052786;28;45815;-71
2022/07/07 03:19:59;;;;;;;;;1.67;1.67;;;;;21.96;48.94;101944.91;5067662;27;45802;-69
2022/07/07 03:22:25;;;;;;;;;4.00;2.33;;;;;22.01;49.21;101954.53;5056042;28;45470;-72
2022/07/07 03:24:50;;;;;;;;;2.67;2.00;;;;;21.93;49.47;101953.88;5055772;28;45649;-71
2022/07/07 03:27:16;;;;;;;;;3.67;3.67;;;;;21.88;49.42;101954.88;5055754;28;45314;-71
2022/07/07 03:29:41;;;;;;;;;2.00;2.00;;;;;21.68;49.29;101928.75;5055788;28;46115;-69
2022/07/07 03:32:08;;;;;;;;;5.67;2.00;;;;;21.74;49.33;101932.13;5054523;28;45463;-71
2022/07/07 03:34:33;;;;;;;;;2.00;2.00;;;;;21.89;49.30;101954.84;5059927;28;45551;-70
2022/07/07 03:36:59;;;;;;;;;2.00;2.00;;;;;21.86;49.24;101949.59;5045135;28;45295;-68
2022/07/07 03:39:24;;;;;;;;;2.67;2.00;;;;;21.89;49.51;101957.53;5055674;28;45786;-67
2022/07/07 03:41:50;;;;;;;;;4.67;3.00;;;;;21.84;49.46;101954.09;5057260;28;45441;-65
2022/07/07 03:44:16;;;;;;;;;2.00;2.00;;;;;21.92;49.42;101953.91;5057461;28;45324;-66
2022/07/07 03:46:41;;;;;;;;;2.00;2.00;;;;;21.94;49.44;101952.94;5056504;28;45472;-67
2022/07/07 03:49:13;;;;;;;;;2.00;2.00;;;;;21.88;49.57;101941.53;5055195;28;45841;-72
2022/07/07 03:51:39;;;;;;;;;3.00;3.00;;;;;21.94;49.51;101942.28;5071542;28;45314;-67
2022/07/07 03:54:05;;;;;;;;;2.00;2.00;;;;;22.03;49.45;101947.38;5055173;28;45380;-70
2022/07/07 03:56:30;;;;;;;;;3.67;3.67;;;;;22.01;49.33;101933.19;5055668;28;45527;-69
2022/07/07 03:58:56;;;;;;;;;2.00;2.00;;;;;22.02;49.21;101932.28;5069552;28;46683;-66
2022/07/07 04:01:22;;;;;;;;;1.00;1.00;;;;;22.07;49.22;101933.94;5055185;27;45212;-70
2022/07/07 04:03:47;;;;;;;;;3.67;3.67;;;;;21.98;49.53;101932.41;5056388;28;45410;-70
2022/07/07 04:06:23;;;;;;;;;2.67;2.00;;;;;22.05;49.85;101941.13;5058968;28;45275;-71
2022/07/07 04:08:49;;;;;;;;;6.00;3.00;;;;;22.01;49.70;101933.19;5055731;28;45466;-69
2022/07/07 04:11:16;;;;;;;;;2.00;2.00;;;;;22.08;49.59;101943.72;5054995;28;45394;-70
2022/07/07 04:13:41;;;;;;;;;4.00;3.00;;;;;22.11;49.56;101938.28;5057904;28;45723;-70
2022/07/07 04:16:07;;;;;;;;;2.33;2.33;;;;;22.12;49.60;101932.91;5070589;28;45339;-70
2022/07/07 04:18:33;;;;;;;;;5.00;5.00;;;;;22.14;49.42;101943.53;5054763;28;46284;-71
2022/07/07 04:20:59;;;;;;;;;6.67;5.00;;;;;22.15;49.65;101929.28;5054734;28;45872;-70
2022/07/07 04:23:24;;;;;;;;;6.00;6.00;;;;;22.19;49.33;101946.97;5055382;28;45397;-70
2022/07/07 04:25:50;;;;;;;;;3.00;3.00;;;;;22.22;49.47;101942.44;5055894;28;45405;-68
2022/07/07 04:28:31;;;;;;;;;2.00;2.00;;;;;22.21;49.56;101937.16;5058167;28;45486;-70
2022/07/07 04:30:57;;;;;;;;;6.00;4.67;;;;;22.26;49.50;101943.25;5070388;28;45547;-68
2022/07/07 04:33:23;;;;;;;;;4.33;3.00;;;;;22.24;49.46;101931.72;5071123;28;45595;-67
2022/07/07 04:35:48;;;;;;;;;2.33;2.33;;;;;22.31;49.27;101937.78;5051832;28;45441;-69
2022/07/07 04:38:14;;;;;;;;;2.67;2.67;;;;;22.27;49.40;101928.97;5052667;28;45375;-65
2022/07/07 04:40:40;;;;;;;;;0.00;0.00;;;;;22.36;49.54;101946.53;5056125;28;45373;-67
2022/07/07 04:43:07;;;;;;;;;4.33;2.67;;;;;22.33;49.60;101947.50;5054512;28;45776;-66
2022/07/07 04:45:33;;;;;;;;;5.00;3.00;;;;;22.33;49.65;101952.84;5054916;28;45816;-69
2022/07/07 04:48:02;;;;;;;;;5.00;3.67;;;;;22.29;49.78;101948.50;5054459;28;45466;-71
2022/07/07 04:50:28;;;;;;;;;2.33;2.33;;;;;22.09;49.96;101926.78;5054599;28;45614;-70
2022/07/07 04:52:57;;;;;;;;;3.00;3.00;;;;;22.32;49.78;101958.19;5054457;28;45438;-71
2022/07/07 04:55:23;;;;;;;;;3.00;3.00;;;;;22.22;50.06;101952.25;5054207;28;45413;-68
2022/07/07 04:57:49;;;;;;;;;4.00;3.00;;;;;22.27;49.77;101955.66;5054260;28;45743;-67
2022/07/07 05:00:15;;;;;;;;;3.00;3.00;;;;;22.25;50.19;101960.16;5057935;28;45728;-68
2022/07/07 05:02:41;;;;;;;;;3.00;2.67;;;;;22.22;50.18;101976.25;5054583;28;45802;-65
2022/07/07 05:05:07;;;;;;;;;6.00;6.00;;;;;22.18;50.49;101972.75;5054807;28;45331;-64
2022/07/07 05:07:33;;;;;;;;;5.33;5.00;;;;;22.10;50.49;101957.88;5054291;28;46110;-67
2022/07/07 05:09:59;;;;;;;;;5.00;4.67;;;;;22.15;50.78;101975.50;5054159;28;45619;-64
2022/07/07 05:12:25;;;;;;;;;4.33;4.33;;;;;22.07;50.64;101972.19;5053545;28;45583;-67
2022/07/07 05:14:50;;;;;;;;;5.33;4.67;;;;;22.11;50.90;101981.84;5054380;28;45451;-66
2022/07/07 05:17:16;;;;;;;;;5.00;3.67;;;;;22.09;50.88;101977.47;5053976;28;45456;-66
2022/07/07 05:19:41;;;;;;;;;4.00;4.00;;;;;22.15;50.95;101987.97;5056125;28;45452;-67
2022/07/07 05:22:07;;;;;;;;;2.33;2.33;;;;;22.11;50.91;101981.84;5056011;28;45383;-69
2022/07/07 05:24:33;;;;;;;;;3.33;3.33;;;;;22.18;50.98;101982.56;5052997;28;45608;-69
2022/07/07 05:27:06;;;;;;;;;3.00;3.00;;;;;22.01;50.76;101959.00;5057358;28;46039;-68
2022/07/07 05:29:31;;;;;;;;;3.33;3.00;;;;;22.11;50.96;101973.84;5073696;28;45465;-68
2022/07/07 05:31:57;;;;;;;;;5.00;5.00;;;;;22.16;51.08;101979.06;5058702;28;45423;-70
2022/07/07 05:34:23;;;;;;;;;3.00;3.00;;;;;22.17;51.33;101980.81;5056833;28;45300;-66
2022/07/07 05:36:49;;;;;;;;;6.00;4.00;;;;;22.22;51.04;101978.94;5039687;28;46031;-67
2022/07/07 05:39:14;;;;;;;;;7.33;6.67;;;;;22.17;50.89;101975.47;5054050;28;45420;-68
2022/07/07 05:41:41;;;;;;;;;5.00;5.00;;;;;22.25;50.98;101984.19;5058098;28;45397;-69
2022/07/07 05:44:07;;;;;;;;;3.33;3.33;;;;;22.32;50.94;101982.22;5056839;28;45387;-70
2022/07/07 05:46:41;;;;;;;;;5.67;5.67;;;;;22.18;51.38;101975.41;5053456;28;46031;-70
2022/07/07 05:49:07;;;;;;;;;6.33;4.00;;;;;22.24;51.17;101985.09;5051789;28;45643;-71
2022/07/07 05:51:32;;;;;;;;;3.33;3.33;;;;;22.29;51.19;101980.50;5052054;28;45411;-71
2022/07/07 05:53:58;;;;;;;;;3.00;3.00;;;;;22.34;51.07;101991.06;5058470;28;45492;-70
2022/07/07 05:56:23;;;;;;;;;4.00;4.00;;;;;22.27;50.85;101973.47;5053748;28;46118;-69
2022/07/07 05:58:49;;;;;;;;;4.33;3.00;;;;;22.41;50.84;101992.66;5054009;28;45468;-69
2022/07/07 06:01:14;;;;;;;;;4.00;4.00;;;;;22.38;50.73;101988.28;5054777;28;45387;-69
2022/07/07 06:03:40;;;;;;;;;4.67;4.67;;;;;22.48;50.72;102001.38;5055072;28;45797;-71
2022/07/07 06:06:05;;;;;;;;;3.00;2.67;;;;;22.51;50.62;102003.94;5057283;28;46198;-71
2022/07/07 06:08:32;;;;;;;;;7.67;4.00;;;;;22.52;50.82;102000.34;5054590;28;45731;-70
2022/07/07 06:10:57;;;;;;;;;5.00;3.33;;;;;22.49;51.07;101998.63;5055128;28;45752;-69
2022/07/07 06:13:23;;;;;;;;;4.33;4.33;;;;;22.56;50.98;102018.91;5056238;28;45845;-64
2022/07/07 06:15:48;;;;;;;;;6.33;4.00;;;;;22.59;50.74;102010.84;5057008;28;46545;-67
2022/07/07 06:18:15;;;;;;;;;3.67;3.00;;;;;22.58;50.75;102008.19;5053159;28;45355;-67
2022/07/07 06:20:41;;;;;;;;;2.33;2.33;;;;;22.55;50.66;102006.50;5071890;28;45554;-68
2022/07/07 06:23:07;;;;;;;;;6.00;4.00;;;;;22.66;50.75;102032.91;5054270;28;45507;-64
2022/07/07 06:25:34;;;;;;;;;5.67;4.33;;;;;22.56;50.71;102004.69;5052923;28;46391;-70
2022/07/07 06:28:00;;;;;;;;;4.00;4.00;;;;;22.72;50.67;102038.06;5056312;27;45847;-65
2022/07/07 06:30:36;;;;;;;;;0.33;0.33;;;;;22.62;50.92;102020.56;5052709;28;45643;-71
2022/07/07 06:33:03;;;;;;;;;6.00;4.00;;;;;22.61;50.74;102018.78;5054003;28;45669;-68
2022/07/07 06:35:28;;;;;;;;;4.00;3.00;;;;;22.73;50.63;102038.94;5047799;28;45385;-64
2022/07/07 06:37:54;;;;;;;;;4.67;2.33;;;;;22.69;50.62;102038.16;5046849;28;46146;-64
2022/07/07 06:40:20;;;;;;;;;7.00;5.00;;;;;22.74;50.80;102041.56;5052585;28;45447;-70
2022/07/07 06:42:46;;;;;;;;;5.00;4.00;;;;;22.67;50.63;102036.44;5053565;28;45488;-64
2022/07/07 06:45:12;;;;;;;;;3.67;3.00;;;;;22.50;50.70;102013.75;5053736;28;46578;-70
2022/07/07 06:47:37;;;;;;;;;3.00;3.00;;;;;22.75;50.71;102050.44;5053082;28;46004;-71
2022/07/07 06:50:03;;;;;;;;;2.67;2.67;;;;;22.75;50.65;102047.78;5053434;28;45705;-70
2022/07/07 06:52:29;;;;;;;;;4.67;3.00;;;;;22.75;50.78;102051.31;5053582;28;45798;-69
2022/07/07 06:54:55;;;;;;;;;5.00;3.33;;;;;22.74;50.68;102041.56;5053587;28;46511;-70
2022/07/07 06:57:21;;;;;;;;;5.00;3.00;;;;;22.78;50.32;102047.69;5075921;28;45793;-71
2022/07/07 06:59:47;;;;;;;;;4.00;2.00;;;;;22.77;50.80;102033.47;5060905;28;45338;-68
2022/07/07 07:02:12;;;;;;;;;3.67;3.00;;;;;22.89;50.91;102045.59;5057848;28;45466;-71
2022/07/07 07:04:38;;;;;;;;;4.67;3.00;;;;;22.95;50.48;102039.22;5052989;28;46184;-69
2022/07/07 07:07:04;;;;;;;;;4.00;4.00;;;;;23.01;50.28;102044.38;5053800;28;45662;-67
2022/07/07 07:09:30;;;;;;;;;5.00;3.33;;;;;23.07;50.14;102046.91;5049575;28;45513;-71
2022/07/07 07:11:56;;;;;;;;;2.00;2.00;;;;;23.13;50.00;102053.84;5059779;28;45335;-67
2022/07/07 07:14:21;;;;;;;;;7.00;4.00;;;;;23.10;49.90;102036.09;5056203;28;45896;-69
2022/07/07 07:16:47;;;;;;;;;2.67;2.67;;;;;23.21;49.96;102057.19;5055892;28;45383;-72
2022/07/07 07:19:13;;;;;;;;;4.00;3.00;;;;;23.24;49.76;102071.31;5056093;28;45428;-70
2022/07/07 07:21:39;;;;;;;;;4.67;3.00;;;;;23.27;49.79;102059.66;5056317;28;45451;-69
2022/07/07 07:24:05;;;;;;;;;7.00;7.00;;;;;23.28;49.54;102056.94;5056064;28;46302;-71
2022/07/07 07:26:31;;;;;;;;;4.00;4.00;;;;;23.39;49.70;102066.44;5056527;28;45470;-72
2022/07/07 07:28:56;;;;;;;;;6.00;4.00;;;;;23.39;49.25;102063.75;5058742;28;45385;-68
2022/07/07 07:31:22;;;;;;;;;6.00;3.00;;;;;23.52;49.18;102078.50;5056186;28;45598;-69
2022/07/07 07:33:47;;;;;;;;;15.33;11.00;;;;;23.57;49.20;102073.88;5054009;28;45689;-68
2022/07/07 07:36:13;;;;;;;;;14.67;13.00;;;;;23.67;49.00;102082.50;5044860;28;45409;-66
2022/07/07 07:38:40;;;;;;;;;17.00;14.00;;;;;23.76;48.32;102087.59;5052441;28;45515;-68
2022/07/07 07:41:11;;;;;;;;;11.33;9.33;;;;;23.78;48.62;102079.53;5055464;28;45553;-71
2022/07/07 07:43:37;;;;;;;;;7.00;7.00;;;;;23.84;48.67;102096.22;5055270;28;46509;-70
2022/07/07 07:46:03;;;;;;;;;9.67;9.67;;;;;23.93;48.24;102087.03;5055506;27;45676;-69
2022/07/07 07:48:29;;;;;;;;;8.33;7.00;;;;;24.04;47.92;102090.25;5055660;27;45834;-71
2022/07/07 07:50:54;;;;;;;;;7.33;5.67;;;;;24.13;47.79;102097.09;5055646;28;45573;-70
2022/07/07 07:53:20;;;;;;;;;6.33;5.33;;;;;24.16;47.52;102083.63;5055215;28;45936;-64
2022/07/07 07:55:45;;;;;;;;;7.00;5.33;;;;;24.27;47.11;102094.81;5046606;28;45917;-68
2022/07/07 07:58:11;;;;;;;;;4.33;3.67;;;;;24.39;46.79;102096.19;5060363;28;45721;-72
2022/07/07 08:00:37;;;;;;;;;2.33;2.33;;;;;24.55;46.93;102110.84;5057826;28;45950;-68
2022/07/07 08:03:03;;;;;;;;;4.33;4.33;;;;;24.69;46.91;102106.81;5059641;28;46287;-67
2022/07/07 08:05:30;;;;;;;;;3.67;3.00;;;;;24.83;46.36;102099.16;5054886;28;45440;-69
2022/07/07 08:07:55;;;;;;;;;4.33;4.33;;;;;24.95;45.69;102087.13;5056987;27;46472;-69
2022/07/07 08:10:21;;;;;;;;;5.00;4.33;;;;;25.00;45.89;102081.59;5059028;28;46004;-70
2022/07/07 08:12:47;;;;;;;;;3.00;3.00;;;;;25.12;45.56;102083.81;5058852;28;45452;-71
2022/07/07 08:15:14;;;;;;;;;2.33;2.33;;;;;25.16;45.55;102080.09;5058423;28;45670;-69
2022/07/07 08:17:39;;;;;;;;;2.33;2.00;;;;;25.26;45.21;102086.00;5061967;28;45493;-70
2022/07/07 08:20:06;;;;;;;;;2.33;2.33;;;;;25.34;45.07;102075.84;5052532;28;45430;-67
2022/07/07 08:22:32;;;;;;;;;5.00;3.00;;;;;25.51;45.07;102085.94;5058287;28;46271;-70
2022/07/07 08:24:57;;;;;;;;;2.00;2.00;;;;;25.52;44.63;102076.94;5056995;28;45433;-71
2022/07/07 08:27:23;;;;;;;;;4.00;3.00;;;;;25.43;44.50;102077.31;5056794;28;45536;-68
2022/07/07 08:29:51;;;;;;;;;4.33;2.67;;;;;25.38;44.77;102086.41;5055146;27;45725;-69
2022/07/07 08:32:17;;;;;;;;;3.33;3.33;;;;;25.26;44.88;102084.19;5057112;28;46394;-68
2022/07/07 08:34:43;;;;;;;;;2.50;2.50;;;;;25.26;45.33;102077.97;5054058;28;45304;-70
2022/07/07 08:37:10;;;;;;;;;2.00;2.00;;;;;25.21;44.66;102064.72;5052528;28;45421;-68
2022/07/07 08:39:35;;;;;;;;;3.25;2.25;;;;;25.24;44.61;102083.38;5055571;28;45416;-68
2022/07/07 08:42:01;;;;;;;;;4.50;3.25;;;;;25.17;44.99;102069.31;5052308;28;46214;-68
2022/07/07 08:44:27;;;;;;;;;2.00;2.00;;;;;25.25;44.89;102085.13;5070358;27;45361;-68
2022/07/07 08:46:53;;;;;;;;;2.00;2.00;;;;;25.21;44.79;102066.53;5068617;27;45477;-66
2022/07/07 08:49:19;;;;;;;;;1.00;1.00;;;;;25.35;44.75;102075.78;5051415;28;45811;-67
2022/07/07 08:51:45;;;;;;;;;3.25;2.00;;;;;25.47;44.13;102066.41;5053848;27;46047;-67
2022/07/07 08:54:12;;;;;;;;;3.00;3.00;;;;;25.54;44.16;102075.94;5056116;28;45678;-69
2022/07/07 08:56:38;;;;;;;;;2.50;2.00;;;;;25.50;43.85;102076.13;5056637;28;45538;-66
2022/07/07 08:59:08;;;;;;;;;2.25;2.00;;;;;25.57;43.62;102080.31;5054778;28;45831;-69
2022/07/07 09:01:35;;;;;;;;;3.25;2.00;;;;;25.54;43.79;102080.44;5057467;28;45472;-68
2022/07/07 09:04:01;;;;;;;;;2.75;2.75;;;;;25.45;43.97;102070.06;5058002;28;45252;-67
2022/07/07 09:06:28;;;;;;;;;2.00;2.00;;;;;25.48;43.93;102070.81;5054912;28;45489;-69
2022/07/07 09:08:55;;;;;;;;;1.25;1.25;;;;;25.47;44.07;102084.31;5070619;28;45547;-68
2022/07/07 09:11:28;;;;;;;;;2.00;1.50;;;;;25.46;44.11;102077.16;5054073;28;45369;-69
2022/07/07 09:14:11;;;;;;;;;1.00;1.00;;;;;25.66;43.13;102073.72;5054717;28;45523;-70
2022/07/07 09:16:37;;;;;;;;;1.50;1.50;;;;;25.90;42.62;102077.25;5055564;28;45461;-69
2022/07/07 09:19:09;;;;;;;;;3.50;1.50;;;;;26.00;42.59;102078.59;5056465;28;45373;-70
2022/07/07 09:21:34;;;;;;;;;1.00;1.00;;;;;26.08;42.48;102073.81;5047691;28;46508;-72
2022/07/07 09:24:03;;;;;;;;;1.00;1.00;;;;;26.15;42.35;102080.66;5072205;28;45493;-72
2022/07/07 09:26:36;;;;;;;;;1.00;1.00;;;;;26.16;42.61;102084.22;5072659;28;46815;-72
2022/07/07 09:29:02;;;;;;;;;1.00;1.00;;;;;26.06;42.47;102081.03;5054577;28;45550;-70
2022/07/07 09:31:54;;;;;;;;;1.25;1.25;;;;;25.94;42.87;102079.75;5045436;28;45410;-71
2022/07/07 09:34:21;;;;;;;;;1.00;1.00;;;;;25.86;42.83;102091.69;5053909;28;45415;-65
2022/07/07 09:39:43;;;;;;;;;1.00;1.00;;;;;25.67;42.70;102088.88;5054534;28;45694;-67
2022/07/07 09:42:20;;;;;;;;;3.50;2.00;;;;;25.64;43.12;102097.06;5053842;28;46386;-66
2022/07/07 09:44:55;;;;;;;;;4.00;2.25;;;;;25.62;42.70;102094.41;5056848;28;45636;-68
2022/07/07 09:47:22;;;;;;;;;4.50;2.00;;;;;25.58;43.23;102087.44;5058170;28;45326;-67
2022/07/07 09:50:10;;;;;;;;;2.75;2.75;;;;;25.67;43.16;102099.59;5054308;28;45450;-70
2022/07/07 09:52:39;;;;;;;;;1.50;1.00;;;;;25.74;42.96;102104.66;5055303;28;45407;-69
2022/07/07 09:55:08;;;;;;;;;2.00;1.00;;;;;25.68;42.62;102120.16;5056335;28;45839;-70
2022/07/07 09:57:34;;;;;;;;;2.00;2.00;;;;;25.55;43.34;102109.88;5054490;28;45393;-69
2022/07/07 10:00:00;;;;;;;;;4.25;2.00;;;;;25.41;43.62;102128.31;5054684;28;45493;-69
2022/07/07 10:02:29;;;;;;;;;2.75;2.75;;;;;25.20;43.81;102118.41;5053591;28;46006;-73
2022/07/07 10:04:58;;;;;;;;;2.75;2.75;;;;;25.26;44.08;102142.31;5054942;28;45413;-71
2022/07/07 10:07:27;;;;;;;;;3.25;2.00;;;;;25.16;44.13;102139.94;5057494;28;45437;-71
2022/07/07 10:09:55;;;;;;;;;3.00;3.00;;;;;25.07;44.21;102144.75;5059397;28;45404;-70
2022/07/07 10:12:26;;;;;;;;;5.00;4.00;;;;;25.04;44.92;102158.28;5057778;28;45618;-69
2022/07/07 10:15:00;;;;;;;;;4.50;4.50;;;;;24.92;44.44;102155.13;5053778;28;45645;-67
2022/07/07 10:17:27;;;;;;;;;11.33;10.33;;;;;24.91;44.83;102156.03;5053418;28;45545;-68
2022/07/07 10:19:53;;;;;;;;;7.33;5.67;;;;;24.86;44.97;102162.50;5053995;28;45625;-69
2022/07/07 10:22:26;;;;;;;;;5.33;5.00;;;;;24.71;45.13;102159.41;5053093;28;45355;-66
2022/07/07 10:24:52;;;;;;;;;4.67;4.67;;;;;24.73;45.18;102170.09;5053684;28;45487;-68
2022/07/07 10:27:21;;;;;;;;;3.33;3.33;;;;;24.65;45.47;102167.66;5053755;28;45501;-70
2022/07/07 10:29:58;;;;;;;;;2.67;2.67;;;;;24.57;45.40;102180.44;5070076;28;45486;-68
2022/07/07 10:32:40;;;;;;;;;2.33;2.33;;;;;24.51;45.43;102186.00;5057249;28;45543;-69
2022/07/07 10:35:09;;;;;;;;;3.00;3.00;;;;;24.44;45.39;102185.31;5054576;28;45724;-70
2022/07/07 10:37:46;;;;;;;;;3.00;3.00;;;;;24.47;45.19;102187.06;5048584;28;45533;-69
2022/07/07 10:40:19;;;;;;;;;2.00;2.00;;;;;24.59;44.80;102189.31;5075092;28;45457;-68
2022/07/07 10:43:15;;;;;;;;;2.00;2.00;;;;;24.72;44.57;102195.13;5056513;28;46314;-69
2022/07/07 10:45:45;;;;;;;;;2.00;2.00;;;;;24.85;44.41;102187.56;5057373;28;45716;-68
2022/07/07 10:48:50;;;;;;;;;3.50;2.00;;;;;25.03;44.03;102196.72;5055988;28;45277;-69
2022/07/07 10:51:18;;;;;;;;;1.00;1.00;;;;;25.19;44.06;102200.66;5056712;28;45375;-68
2022/07/07 10:54:06;;;;;;;;;4.00;2.25;;;;;25.30;43.52;102208.31;5056978;28;45618;-68
2022/07/07 10:56:53;;;;;;;;;1.25;1.25;;;;;25.39;43.13;102195.44;5056031;28;45637;-70
2022/07/07 10:59:23;;;;;;;;;3.25;2.00;;;;;25.53;43.38;102202.06;5056628;28;45433;-68
2022/07/07 11:02:09;;;;;;;;;4.75;3.75;;;;;25.63;43.11;102191.88;5059132;27;45415;-70
2022/07/07 11:04:44;;;;;;;;;2.25;2.25;;;;;25.71;42.53;102209.44;5060333;28;46408;-70
2022/07/07 11:07:11;;;;;;;;;4.00;2.00;;;;;25.66;42.50;102208.75;5056682;28;45391;-69
2022/07/07 11:10:09;;;;;;;;;2.00;2.00;;;;;25.57;43.01;102215.31;5055878;28;45578;-69
2022/07/07 11:12:52;;;;;;;;;2.00;2.00;;;;;25.48;42.90;102217.47;5056501;28;45388;-68
2022/07/07 11:15:21;;;;;;;;;2.00;2.00;;;;;25.39;43.51;102219.56;5053366;28;45504;-68
2022/07/07 11:17:49;;;;;;;;;3.25;3.25;;;;;25.30;43.17;102225.28;5046796;28;45469;-71
2022/07/07 11:20:16;;;;;;;;;2.00;2.00;;;;;25.24;43.32;102225.47;5056888;28;45421;-70
2022/07/07 11:22:50;;;;;;;;;3.00;3.00;;;;;25.18;43.57;102226.59;5060633;28;45479;-69
2022/07/07 11:25:21;;;;;;;;;3.00;3.00;;;;;25.11;43.94;102219.66;5059551;28;46234;-68
2022/07/07 11:27:51;;;;;;;;;3.00;3.00;;;;;25.15;43.98;102220.41;5051610;28;45402;-69
2022/07/07 11:30:21;;;;;;;;;7.50;6.00;;;;;25.21;43.66;102214.00;5071250;27;45550;-70